createdAt,value
2019-06-15T00:00:38.697Z,99.90
2019-06-15T00:03:07.103Z,99.90
2019-06-15T00:05:35.519Z,99.90
2019-06-15T00:08:05.046Z,99.90
2019-06-15T00:10:33.706Z,99.90
2019-06-15T00:13:02.131Z,99.90
2019-06-15T00:15:30.528Z,99.90
2019-06-15T00:17:58.939Z,99.90
2019-06-15T00:20:27.335Z,99.90
2019-06-15T00:22:55.742Z,99.90
2019-06-15T00:25:24.126Z,99.90
2019-06-15T00:27:52.538Z,99.90
2019-06-15T00:30:21.016Z,99.90
2019-06-15T00:32:49.430Z,99.90
2019-06-15T00:35:17.832Z,99.90
2019-06-15T00:37:46.234Z,99.90
2019-06-15T00:40:16.086Z,99.90
2019-06-15T00:42:44.487Z,99.90
2019-06-15T00:45:13.026Z,99.90
2019-06-15T00:47:41.443Z,99.90
2019-06-15T00:50:09.918Z,99.90
2019-06-15T00:52:38.337Z,99.90
2019-06-15T00:55:07.590Z,99.90
2019-06-15T00:57:36.929Z,99.90
2019-06-15T01:00:09.987Z,99.90
2019-06-15T01:02:38.415Z,99.90
2019-06-15T01:05:07.651Z,99.90
2019-06-15T01:07:36.062Z,99.90
2019-06-15T01:10:06.578Z,99.90
2019-06-15T01:12:34.967Z,99.90
2019-06-15T01:15:03.752Z,99.90
2019-06-15T01:17:32.200Z,99.90
2019-06-15T01:20:00.623Z,99.90
2019-06-15T01:22:29.015Z,99.90
2019-06-15T01:25:05.463Z,99.90
2019-06-15T01:27:27.557Z,99.90
2019-06-15T01:29:56.031Z,99.90
2019-06-15T01:32:24.427Z,99.90
2019-06-15T01:34:52.840Z,99.90
2019-06-15T01:37:21.252Z,99.90
2019-06-15T01:39:49.678Z,99.90
2019-06-15T01:42:18.072Z,99.90
2019-06-15T01:44:46.570Z,99.90
2019-06-15T01:47:14.968Z,99.90
2019-06-15T01:49:43.379Z,99.90
2019-06-15T01:52:11.792Z,99.90
2019-06-15T01:54:40.203Z,99.90
2019-06-15T01:57:08.615Z,99.90
2019-06-15T01:59:37.027Z,99.90
2019-06-15T02:02:05.449Z,99.90
2019-06-15T02:04:33.861Z,99.90
2019-06-15T02:07:02.268Z,99.90
2019-06-15T02:09:30.690Z,99.90
2019-06-15T02:11:59.082Z,99.90
2019-06-15T02:14:27.499Z,99.90
2019-06-15T02:16:55.897Z,99.90
2019-06-15T02:19:24.322Z,99.90
2019-06-15T02:21:52.705Z,99.90
2019-06-15T02:24:21.141Z,99.90
2019-06-15T02:26:49.554Z,99.90
2019-06-15T02:29:17.989Z,99.90
2019-06-15T02:31:46.382Z,99.90
2019-06-15T02:34:14.813Z,99.90
2019-06-15T02:36:43.270Z,99.90
2019-06-15T02:39:11.679Z,99.90
2019-06-15T02:41:40.163Z,99.90
2019-06-15T02:44:08.566Z,99.90
2019-06-15T02:46:36.993Z,99.90
2019-06-15T02:49:06.038Z,99.90
2019-06-15T02:51:35.033Z,99.90
2019-06-15T02:54:03.555Z,99.90
2019-06-15T02:56:31.956Z,99.90
2019-06-15T02:59:00.392Z,99.90
2019-06-15T03:01:28.875Z,99.90
2019-06-15T03:03:57.277Z,99.90
2019-06-15T03:06:25.960Z,99.90
2019-06-15T03:08:54.423Z,99.90
2019-06-15T03:11:22.989Z,99.90
2019-06-15T03:13:51.394Z,99.90
2019-06-15T03:16:19.813Z,99.90
2019-06-15T03:18:48.226Z,99.90
2019-06-15T03:21:16.636Z,99.90
2019-06-15T03:23:45.080Z,99.90
2019-06-15T03:26:13.488Z,99.90
2019-06-15T03:28:41.896Z,99.90
2019-06-15T03:31:10.310Z,99.90
2019-06-15T03:33:38.712Z,99.90
2019-06-15T03:36:07.124Z,99.90
2019-06-15T03:38:35.528Z,99.90
2019-06-15T03:41:03.940Z,99.90
2019-06-15T03:43:32.328Z,99.90
2019-06-15T03:46:00.745Z,99.90
2019-06-15T03:48:29.131Z,99.90
2019-06-15T03:50:57.547Z,99.90
2019-06-15T03:53:25.957Z,99.90
2019-06-15T03:55:54.351Z,99.90
2019-06-15T03:58:22.784Z,99.90
2019-06-15T04:01:03.183Z,99.90
2019-06-15T04:03:31.592Z,99.90
2019-06-15T04:05:59.990Z,99.90
2019-06-15T04:08:28.420Z,99.90
2019-06-15T04:10:56.835Z,99.90
2019-06-15T04:13:25.266Z,99.90
2019-06-15T04:15:53.677Z,99.90
2019-06-15T04:18:22.177Z,99.90
2019-06-15T04:20:50.578Z,99.90
2019-06-15T04:23:19.001Z,99.90
2019-06-15T04:25:47.416Z,99.90
2019-06-15T04:28:15.854Z,99.90
2019-06-15T04:30:44.261Z,99.90
2019-06-15T04:33:12.685Z,99.90
2019-06-15T04:35:41.098Z,99.90
2019-06-15T04:38:09.516Z,99.90
2019-06-15T04:40:37.952Z,99.90
2019-06-15T04:43:06.364Z,99.90
2019-06-15T04:45:34.786Z,99.90
2019-06-15T04:48:03.201Z,99.90
2019-06-15T04:50:31.603Z,99.90
2019-06-15T04:53:00.027Z,99.90
2019-06-15T04:55:28.448Z,99.90
2019-06-15T04:57:56.856Z,99.90
2019-06-15T05:00:25.338Z,99.90
2019-06-15T05:02:53.767Z,99.90
2019-06-15T05:05:22.183Z,99.90
2019-06-15T05:07:50.605Z,99.90
2019-06-15T05:10:19.029Z,99.90
2019-06-15T05:12:47.439Z,99.90
2019-06-15T05:15:15.928Z,99.90
2019-06-15T05:17:46.217Z,99.90
2019-06-15T05:20:14.609Z,99.90
2019-06-15T05:22:43.037Z,99.90
2019-06-15T05:25:11.528Z,99.90
2019-06-15T05:27:39.952Z,99.90
2019-06-15T05:30:08.599Z,99.90
2019-06-15T05:32:37.000Z,99.90
2019-06-15T05:35:07.066Z,99.90
2019-06-15T05:37:35.476Z,99.90
2019-06-15T05:40:05.030Z,99.90
2019-06-15T05:42:33.462Z,99.90
2019-06-15T05:45:01.884Z,99.90
2019-06-15T05:47:30.329Z,99.90
2019-06-15T05:49:58.756Z,99.90
2019-06-15T05:52:27.166Z,99.90
2019-06-15T05:54:55.591Z,99.90
2019-06-15T05:57:24.002Z,99.90
2019-06-15T05:59:52.431Z,99.90
2019-06-15T06:02:24.524Z,99.90
2019-06-15T06:04:50.976Z,99.90
2019-06-15T06:07:19.385Z,99.90
2019-06-15T06:09:47.814Z,99.90
2019-06-15T06:12:16.220Z,99.90
2019-06-15T06:14:44.643Z,99.90
2019-06-15T06:17:13.052Z,99.90
2019-06-15T06:19:41.481Z,99.90
2019-06-15T06:22:09.956Z,99.90
2019-06-15T06:24:38.385Z,99.90
2019-06-15T06:27:06.817Z,99.90
2019-06-15T06:29:35.280Z,99.90
2019-06-15T06:32:03.948Z,99.90
2019-06-15T06:34:33.609Z,99.90
2019-06-15T06:37:02.046Z,99.90
2019-06-15T06:39:30.463Z,99.90
2019-06-15T06:41:58.860Z,99.90
2019-06-15T06:44:27.270Z,99.90
2019-06-15T06:46:55.687Z,99.90
2019-06-15T06:49:24.075Z,99.90
2019-06-15T06:51:52.491Z,99.90
2019-06-15T06:54:20.905Z,99.90
2019-06-15T06:56:49.304Z,99.90
2019-06-15T06:59:17.797Z,99.90
2019-06-15T07:01:46.209Z,99.90
2019-06-15T07:04:14.640Z,99.90
2019-06-15T07:06:43.037Z,99.90
2019-06-15T07:09:11.516Z,99.90
2019-06-15T07:11:39.999Z,99.90
2019-06-15T07:14:08.415Z,99.90
2019-06-15T07:16:36.824Z,99.90
2019-06-15T07:19:05.259Z,99.90
2019-06-15T07:21:33.651Z,99.90
2019-06-15T07:24:02.059Z,99.90
2019-06-15T07:26:30.481Z,99.90
2019-06-15T07:28:58.898Z,99.90
2019-06-15T07:31:27.300Z,99.90
2019-06-15T07:33:55.709Z,99.90
2019-06-15T07:36:24.180Z,99.90
2019-06-15T07:38:52.588Z,99.90
2019-06-15T07:41:21.012Z,99.90
2019-06-15T07:43:49.429Z,99.90
2019-06-15T07:46:17.825Z,99.90
2019-06-15T07:48:46.248Z,99.90
2019-06-15T07:51:14.675Z,99.90
2019-06-15T07:53:43.107Z,99.90
2019-06-15T07:56:11.536Z,99.90
2019-06-15T07:58:39.956Z,99.90
2019-06-15T08:01:08.385Z,99.90
2019-06-15T08:03:36.788Z,99.90
2019-06-15T08:06:05.276Z,99.90
2019-06-15T08:08:33.684Z,99.90
2019-06-15T08:11:02.258Z,99.90
2019-06-15T08:13:30.684Z,99.90
2019-06-15T08:15:59.113Z,99.90
2019-06-15T08:18:27.515Z,99.90
2019-06-15T08:20:55.927Z,99.90
2019-06-15T08:23:24.328Z,99.90
2019-06-15T08:25:52.750Z,99.90
2019-06-15T08:28:21.164Z,99.90
2019-06-15T08:30:49.661Z,99.90
2019-06-15T08:33:18.053Z,99.90
2019-06-15T08:35:46.469Z,99.90
2019-06-15T08:38:14.888Z,99.90
2019-06-15T08:40:43.292Z,99.90
2019-06-15T08:43:11.714Z,99.90
2019-06-15T08:45:40.135Z,99.90
2019-06-15T08:48:08.583Z,99.90
2019-06-15T08:50:37.002Z,99.90
2019-06-15T08:53:05.415Z,99.90
2019-06-15T08:55:33.827Z,99.90
2019-06-15T08:58:02.258Z,99.90
2019-06-15T09:00:30.657Z,99.90
2019-06-15T09:02:59.144Z,99.90
2019-06-15T09:05:27.543Z,99.90
2019-06-15T09:07:55.964Z,99.90
2019-06-15T09:10:24.382Z,99.90
2019-06-15T09:12:52.796Z,99.90
2019-06-15T09:15:39.035Z,99.90
2019-06-15T09:18:07.465Z,99.90
2019-06-15T09:20:35.945Z,99.90
2019-06-15T09:23:04.409Z,99.90
2019-06-15T09:25:32.832Z,99.90
2019-06-15T09:28:01.244Z,99.90
2019-06-15T09:30:29.660Z,99.90
2019-06-15T09:32:58.097Z,99.90
2019-06-15T09:35:26.581Z,99.90
2019-06-15T09:37:54.996Z,99.90
2019-06-15T09:40:23.485Z,99.90
2019-06-15T09:42:51.900Z,99.90
2019-06-15T09:45:20.323Z,99.90
2019-06-15T09:47:48.732Z,99.90
2019-06-15T09:50:17.209Z,99.90
2019-06-15T09:52:45.624Z,99.90
2019-06-15T09:55:14.183Z,99.90
2019-06-15T09:57:42.604Z,99.90
2019-06-15T10:00:13.283Z,99.90
2019-06-15T10:02:41.693Z,99.90
2019-06-15T10:05:10.556Z,99.90
2019-06-15T10:07:38.968Z,96.70
2019-06-15T10:10:08.727Z,94.30
2019-06-15T10:12:37.206Z,97.40
2019-06-15T10:15:08.120Z,98.60
2019-06-15T10:17:36.544Z,96.90
2019-06-15T10:20:08.977Z,98.40
2019-06-15T10:22:37.530Z,98.50
2019-06-15T10:25:06.645Z,96.90
2019-06-15T10:27:35.059Z,96.30
2019-06-15T10:30:05.628Z,98.90
2019-06-15T10:32:34.020Z,99.90
2019-06-15T10:35:02.501Z,99.90
2019-06-15T10:37:33.028Z,99.90
2019-06-15T10:40:11.401Z,98.80
2019-06-15T10:42:43.308Z,98.70
2019-06-15T10:45:11.892Z,97.50
2019-06-15T10:47:40.314Z,98.70
2019-06-15T10:50:09.366Z,99.90
2019-06-15T10:52:37.845Z,99.90
2019-06-15T10:55:07.683Z,99.90
2019-06-15T10:57:36.428Z,99.90
2019-06-15T11:00:07.555Z,99.90
2019-06-15T11:02:35.957Z,99.90
2019-06-15T11:05:05.418Z,99.90
2019-06-15T11:07:33.822Z,99.90
2019-06-15T11:10:02.318Z,99.90
2019-06-15T11:12:45.111Z,99.60
2019-06-15T11:15:00.868Z,99.90
2019-06-15T11:17:30.002Z,99.90
2019-06-15T11:19:58.420Z,99.90
2019-06-15T11:22:26.892Z,98.70
2019-06-15T11:24:55.348Z,97.70
2019-06-15T11:27:23.755Z,96.90
2019-06-15T11:29:52.168Z,93.90
2019-06-15T11:32:20.579Z,94.60
2019-06-15T11:34:49.043Z,94.90
2019-06-15T11:37:17.444Z,97.30
2019-06-15T11:39:45.856Z,94.70
2019-06-15T11:42:14.270Z,93.80
2019-06-15T11:44:42.685Z,92.50
2019-06-15T11:47:11.079Z,94.20
2019-06-15T11:49:39.503Z,93.80
2019-06-15T11:52:07.980Z,92.20
2019-06-15T11:54:36.404Z,91.30
2019-06-15T11:57:04.824Z,91.20
2019-06-15T11:59:33.324Z,91.90
2019-06-15T12:02:01.762Z,91.10
2019-06-15T12:04:30.241Z,91.90
2019-06-15T12:06:58.660Z,93.00
2019-06-15T12:09:27.084Z,91.80
2019-06-15T12:11:55.505Z,91.30
2019-06-15T12:14:23.940Z,91.50
2019-06-15T12:16:52.411Z,86.90
2019-06-15T12:19:20.812Z,87.90
2019-06-15T12:21:49.231Z,86.60
2019-06-15T12:24:18.519Z,81.60
2019-06-15T12:26:47.198Z,88.60
2019-06-15T12:29:15.600Z,86.00
2019-06-15T12:31:44.014Z,84.80
2019-06-15T12:34:12.408Z,83.30
2019-06-15T12:36:40.830Z,84.00
2019-06-15T12:39:09.264Z,83.60
2019-06-15T12:41:37.744Z,82.80
2019-06-15T12:44:06.149Z,84.20
2019-06-15T12:46:34.575Z,85.20
2019-06-15T12:49:02.984Z,83.60
2019-06-15T12:51:31.389Z,82.00
2019-06-15T12:53:59.801Z,79.10
2019-06-15T12:56:28.224Z,77.50
2019-06-15T12:58:56.627Z,79.00
2019-06-15T13:01:25.069Z,80.50
2019-06-15T13:03:53.546Z,80.90
2019-06-15T13:06:21.960Z,75.90
2019-06-15T13:08:50.372Z,78.30
2019-06-15T13:11:18.772Z,76.00
2019-06-15T13:13:47.193Z,74.40
2019-06-15T13:16:15.617Z,74.50
2019-06-15T13:18:44.030Z,73.70
2019-06-15T13:21:12.440Z,77.00
2019-06-15T13:23:40.853Z,80.10
2019-06-15T13:26:09.270Z,75.70
2019-06-15T13:28:37.663Z,76.00
2019-06-15T13:31:17.749Z,77.10
2019-06-15T13:33:36.229Z,77.80
2019-06-15T13:36:04.697Z,75.50
2019-06-15T13:38:33.147Z,74.30
2019-06-15T13:41:01.551Z,73.50
2019-06-15T13:43:29.963Z,75.20
2019-06-15T13:45:58.379Z,74.00
2019-06-15T13:48:26.853Z,70.30
2019-06-15T13:50:55.300Z,70.60
2019-06-15T13:53:23.742Z,70.50
2019-06-15T13:55:52.164Z,70.60
2019-06-15T13:58:20.580Z,65.30
2019-06-15T14:00:49.052Z,66.60
2019-06-15T14:03:17.478Z,65.20
2019-06-15T14:05:45.888Z,66.40
2019-06-15T14:08:14.385Z,67.50
2019-06-15T14:10:43.520Z,68.20
2019-06-15T14:13:11.940Z,64.40
2019-06-15T14:15:40.343Z,64.30
2019-06-15T14:18:08.760Z,65.00
2019-06-15T14:20:37.169Z,65.80
2019-06-15T14:23:05.581Z,66.00
2019-06-15T14:25:33.988Z,65.60
2019-06-15T14:28:02.401Z,64.20
2019-06-15T14:30:30.896Z,65.10
2019-06-15T14:32:59.536Z,66.00
2019-06-15T14:35:27.927Z,65.10
2019-06-15T14:37:56.348Z,65.80
2019-06-15T14:40:24.757Z,64.70
2019-06-15T14:42:53.197Z,65.00
2019-06-15T14:45:21.682Z,62.40
2019-06-15T14:47:50.099Z,60.40
2019-06-15T14:50:18.510Z,60.40
2019-06-15T14:52:46.951Z,62.70
2019-06-15T14:55:15.585Z,63.80
2019-06-15T14:57:44.050Z,65.30
2019-06-15T15:00:12.515Z,60.70
2019-06-15T15:02:40.932Z,58.50
2019-06-15T15:05:09.475Z,60.80
2019-06-15T15:07:37.956Z,60.50
2019-06-15T15:10:09.190Z,58.70
2019-06-15T15:12:37.601Z,57.50
2019-06-15T15:15:07.675Z,58.40
2019-06-15T15:17:37.227Z,59.40
2019-06-15T15:20:07.135Z,59.70
2019-06-15T15:22:37.141Z,60.30
2019-06-15T15:25:06.846Z,58.50
2019-06-15T15:27:37.528Z,59.70
2019-06-15T15:30:08.343Z,60.80
2019-06-15T15:32:37.133Z,62.00
2019-06-15T15:35:06.786Z,61.30
2019-06-15T15:37:37.208Z,61.10
2019-06-15T15:40:07.409Z,61.50
2019-06-15T15:42:37.093Z,62.80
2019-06-15T15:45:07.398Z,63.10
2019-06-15T15:47:36.331Z,63.50
2019-06-15T15:50:08.978Z,64.80
2019-06-15T15:52:37.717Z,64.70
2019-06-15T15:55:08.931Z,61.60
2019-06-15T15:57:37.343Z,61.40
2019-06-15T16:00:07.470Z,63.40
2019-06-15T16:02:48.109Z,64.10
2019-06-15T16:05:07.224Z,65.30
2019-06-15T16:07:36.441Z,64.60
2019-06-15T16:10:08.158Z,64.70
2019-06-15T16:12:36.568Z,64.80
2019-06-15T16:15:07.439Z,61.20
2019-06-15T16:17:37.254Z,63.10
2019-06-15T16:20:17.375Z,65.70
2019-06-15T16:22:47.948Z,65.10
2019-06-15T16:25:16.939Z,60.60
2019-06-15T16:27:46.319Z,62.50
2019-06-15T16:30:16.718Z,62.60
2019-06-15T16:32:59.973Z,64.70
2019-06-15T16:35:16.564Z,63.20
2019-06-15T16:37:45.145Z,60.70
2019-06-15T16:40:15.689Z,59.80
2019-06-15T16:42:43.757Z,59.10
2019-06-15T16:45:12.246Z,59.90
2019-06-15T16:47:40.649Z,59.20
2019-06-15T16:50:09.201Z,58.90
2019-06-15T16:52:37.609Z,61.40
2019-06-15T16:55:10.757Z,61.40
2019-06-15T16:57:37.338Z,62.20
2019-06-15T17:00:08.821Z,58.80
2019-06-15T17:02:37.237Z,59.40
2019-06-15T17:05:06.539Z,61.30
2019-06-15T17:07:36.765Z,62.50
2019-06-15T17:10:07.020Z,61.30
2019-06-15T17:12:37.253Z,61.70
2019-06-15T17:15:06.796Z,63.60
2019-06-15T17:17:36.827Z,63.00
2019-06-15T17:20:08.231Z,60.50
2019-06-15T17:22:37.774Z,61.20
2019-06-15T17:25:07.788Z,62.50
2019-06-15T17:27:37.474Z,62.40
2019-06-15T17:30:07.238Z,62.60
2019-06-15T17:32:36.960Z,62.90
2019-06-15T17:35:06.408Z,63.00
2019-06-15T17:37:36.346Z,63.80
2019-06-15T17:40:09.061Z,64.80
2019-06-15T17:42:37.512Z,64.70
2019-06-15T17:45:06.920Z,64.90
2019-06-15T17:47:35.358Z,65.70
2019-06-15T17:50:07.303Z,66.00
2019-06-15T17:52:35.994Z,66.30
2019-06-15T17:55:08.744Z,65.90
2019-06-15T17:57:37.148Z,65.50
2019-06-15T18:00:07.762Z,65.50
2019-06-15T18:02:38.292Z,64.20
2019-06-15T18:05:07.067Z,64.30
2019-06-15T18:07:36.032Z,64.70
2019-06-15T18:10:07.409Z,63.60
2019-06-15T18:12:35.964Z,64.40
2019-06-15T18:15:06.393Z,65.00
2019-06-15T18:17:37.019Z,65.00
2019-06-15T18:20:06.827Z,62.70
2019-06-15T18:22:36.233Z,63.30
2019-06-15T18:25:06.453Z,64.50
2019-06-15T18:27:37.246Z,64.60
2019-06-15T18:30:07.451Z,65.70
2019-06-15T18:32:37.919Z,66.40
2019-06-15T18:35:06.880Z,66.60
2019-06-15T18:37:37.097Z,66.50
2019-06-15T18:40:07.737Z,67.10
2019-06-15T18:42:37.008Z,66.40
2019-06-15T18:45:09.016Z,66.70
2019-06-15T18:47:37.492Z,66.90
2019-06-15T18:50:07.895Z,66.50
2019-06-15T18:52:37.817Z,67.60
2019-06-15T18:55:08.168Z,68.20
2019-06-15T18:57:37.315Z,69.20
2019-06-15T19:00:07.737Z,69.70
2019-06-15T19:02:36.423Z,69.00
2019-06-15T19:05:07.936Z,69.00
2019-06-15T19:07:37.707Z,69.30
2019-06-15T19:10:07.278Z,69.90
2019-06-15T19:12:35.847Z,69.60
2019-06-15T19:15:07.370Z,70.00
2019-06-15T19:17:37.130Z,70.10
2019-06-15T19:20:06.403Z,70.40
2019-06-15T19:22:34.804Z,71.00
2019-06-15T19:25:03.585Z,71.40
2019-06-15T19:27:32.009Z,71.20
2019-06-15T19:30:00.420Z,71.60
2019-06-15T19:32:28.849Z,71.80
2019-06-15T19:34:57.258Z,72.00
2019-06-15T19:37:26.153Z,72.00
2019-06-15T19:39:56.530Z,72.70
2019-06-15T19:42:26.013Z,73.00
2019-06-15T19:44:56.231Z,72.70
2019-06-15T19:47:26.500Z,72.40
2019-06-15T19:49:56.869Z,72.10
2019-06-15T19:52:25.029Z,72.30
2019-06-15T19:54:53.447Z,73.40
2019-06-15T19:57:21.865Z,73.80
2019-06-15T19:59:50.355Z,74.40
2019-06-15T20:02:18.751Z,75.10
2019-06-15T20:04:59.232Z,75.40
2019-06-15T20:07:17.322Z,75.70
2019-06-15T20:09:46.263Z,76.20
2019-06-15T20:12:21.095Z,76.40
2019-06-15T20:14:46.251Z,78.20
2019-06-15T20:17:17.363Z,79.70
2019-06-15T20:19:46.461Z,81.60
2019-06-15T20:22:17.135Z,80.80
2019-06-15T20:24:47.280Z,81.30
2019-06-15T20:27:16.388Z,82.30
2019-06-15T20:29:47.461Z,82.20
2019-06-15T20:32:17.399Z,80.80
2019-06-15T20:34:46.232Z,78.80
2019-06-15T20:37:16.815Z,78.10
2019-06-15T20:39:46.744Z,78.70
2019-06-15T20:42:16.493Z,80.80
2019-06-15T20:44:46.204Z,81.90
2019-06-15T20:47:14.785Z,82.90
2019-06-15T20:49:43.213Z,84.60
2019-06-15T20:52:11.612Z,87.10
2019-06-15T20:54:40.041Z,88.60
2019-06-15T20:57:08.440Z,89.10
2019-06-15T20:59:37.117Z,88.00
2019-06-15T21:02:06.704Z,88.70
2019-06-15T21:04:36.407Z,89.50
2019-06-15T21:07:06.652Z,89.30
2019-06-15T21:09:36.405Z,90.20
2019-06-15T21:12:06.649Z,90.00
2019-06-15T21:14:36.563Z,89.90
2019-06-15T21:17:06.824Z,90.00
2019-06-15T21:19:36.106Z,90.50
2019-06-15T21:22:06.285Z,90.80
2019-06-15T21:24:37.189Z,91.80
2019-06-15T21:27:06.292Z,92.00
2019-06-15T21:29:36.919Z,92.80
2019-06-15T21:32:05.018Z,91.90
2019-06-15T21:34:36.041Z,90.20
2019-06-15T21:37:03.563Z,89.20
2019-06-15T21:39:31.992Z,88.60
2019-06-15T21:42:00.473Z,88.10
2019-06-15T21:44:28.907Z,88.80
2019-06-15T21:46:57.377Z,89.40
2019-06-15T21:49:26.403Z,89.60
2019-06-15T21:51:56.424Z,90.00
2019-06-15T21:54:26.717Z,90.20
2019-06-15T21:56:56.450Z,90.10
2019-06-15T21:59:26.120Z,89.90
2019-06-15T22:01:54.707Z,90.10
2019-06-15T22:04:23.099Z,90.20
2019-06-15T22:06:51.507Z,90.40
2019-06-15T22:09:21.087Z,90.70
2019-06-15T22:11:49.829Z,91.00
2019-06-15T22:14:18.228Z,91.30
2019-06-15T22:16:46.727Z,91.20
2019-06-15T22:19:16.968Z,91.30
2019-06-15T22:21:47.536Z,91.70
2019-06-15T22:24:16.258Z,92.10
2019-06-15T22:26:46.768Z,92.60
2019-06-15T22:29:16.758Z,92.50
2019-06-15T22:31:46.663Z,92.50
2019-06-15T22:34:16.233Z,92.70
2019-06-15T22:36:44.952Z,92.70
2019-06-15T22:39:13.355Z,92.80
2019-06-15T22:41:41.768Z,92.80
2019-06-15T22:44:10.197Z,93.10
2019-06-15T22:46:38.664Z,93.40
2019-06-15T22:49:07.072Z,93.50
2019-06-15T22:51:36.781Z,93.70
2019-06-15T22:54:05.478Z,94.00
2019-06-15T22:56:33.974Z,94.20
2019-06-15T22:59:02.374Z,94.10
2019-06-15T23:01:30.784Z,93.80
2019-06-15T23:03:59.184Z,94.00
2019-06-15T23:06:37.528Z,93.90
2019-06-15T23:08:57.733Z,93.50
2019-06-15T23:11:26.601Z,94.00
2019-06-15T23:13:57.550Z,94.20
2019-06-15T23:16:27.194Z,94.00
2019-06-15T23:18:57.135Z,94.10
2019-06-15T23:21:26.879Z,94.50
2019-06-15T23:23:56.311Z,94.60
2019-06-15T23:26:24.961Z,94.90
2019-06-15T23:28:53.368Z,95.20
2019-06-15T23:31:21.775Z,95.40
2019-06-15T23:33:50.181Z,95.30
2019-06-15T23:36:20.261Z,96.10
2019-06-15T23:38:48.656Z,96.00
2019-06-15T23:41:17.078Z,96.80
2019-06-15T23:43:46.394Z,97.30
2019-06-15T23:46:16.056Z,97.30
2019-06-15T23:48:46.828Z,97.70
2019-06-15T23:51:16.979Z,97.40
2019-06-15T23:53:46.261Z,98.00
2019-06-15T23:56:14.751Z,98.00
2019-06-15T23:58:43.163Z,98.50
